Hendaye, France

12:33 PM CEST on September 27, 2016 (GMT +0200)
San Sebastian | | Change Station

Elev 26 ft 43.36 °N, 1.79 °W | Updated 33 minutes ago

Overcast
Overcast
63 °F
Feels Like 63 °F
N
5
Wind Variable Wind from SSW

Today
High -- | Low -- °F
--% Chance of Precip.
Yesterday
High -- | Low -- °F
Precip. -- in
Pressure 30.36 in
Visibility 6.2 miles
Clouds Overcast 2300 ft
Dew Point 61 °F
Humidity 94%
Rainfall 0.00 in
Snow Depth Not available.
8:00 AM 7:54 PM
Waning Crescent, 12% visible
METAR LESO 271000Z 20004KT 9999 OVC023 17/16 Q1028
Pressure 30.36 in
Visibility 6.2 miles
Clouds Overcast 2300 ft
Dew Point 61 °F
Humidity 94%
Rainfall 0.00 in
Snow Depth Not available.
8:00 AM 7:54 PM
Waning Crescent, 12% visible
METAR LESO 271000Z 20004KT 9999 OVC023 17/16 Q1028

10-Day Weather Forecast

×

Almanac

Astronomy

Sep. 27, 2016 Rise Set
Actual Time
Civil Twilight
Nautical Twilight
Astronomical Twilight
Moon
Length of Visible Light
Length of Day
Tomorrow will be .
, % of the Moon is Illuminated

Today's Extremes

Country Highs Country Lows

Community

WunderPhotos

Upload Photos

1,942,057 photos uploaded!

WunderBlog® & News

Nearby

Air Quality

  Air Quality AQ Index Pollutant
Not available.

Snow Depth

Station Depth Elevation

Earthquake Activity

City Distance Mag. Time & Date
Minimum magnitude displayed is 2.5.

Coastal Water Temperatures

Place Temperature

Stations

Nearby Weather Stations

Station Location Temp. Windchill Dew Point Humidity Wind Precip. Elev Updated Type